Time;durP1;ratioP1;P1;durP2;ratioP2;P2;SDS_P1;SDS_P2;PMS_P1;PMS_P2;Temp;Humidity;BMP_temperature;BMP_pressure;BME280_temperature;BME280_humidity;BME280_pressure;Samples;Min_cycle;Max_cycle;Signal;HPM_P1;HPM_P2
2022/09/19 00:01:05;;;;;;;;;;;10.40;99.90;;;;;;5074756;28;20013;-68
2022/09/19 00:03:31;;;;;;;;;;;10.20;99.90;;;;;;5079900;28;19927;-66
2022/09/19 00:05:56;;;;;;;;;;;10.40;99.90;;;;;;5060489;28;19935;-67
2022/09/19 00:08:22;;;;;;;;;;;10.10;99.90;;;;;;5078108;28;19981;-67
2022/09/19 00:10:47;;;;;;;;;;;10.10;99.90;;;;;;5079929;28;19924;-66
2022/09/19 00:13:13;;;;;;;;;;;10.00;99.90;;;;;;5075080;28;19974;-67
2022/09/19 00:15:46;;;;;;;;;;;10.00;99.90;;;;;;5075542;28;19928;-67
2022/09/19 00:18:12;;;;;;;;;;;9.90;99.90;;;;;;5079026;28;19928;-69
2022/09/19 00:20:43;;;;;;;;;;;10.10;99.90;;;;;;5063657;28;19924;-70
2022/09/19 00:25:57;;;;;;;;;;;10.00;99.90;;;;;;5076185;28;20015;-67
2022/09/19 00:28:27;;;;;;;;;;;9.90;99.90;;;;;;5079408;28;21345;-67
2022/09/19 00:30:55;;;;;;;;;;;10.10;99.90;;;;;;5080591;28;20002;-67
2022/09/19 00:33:22;;;;;;;;;;;10.30;99.90;;;;;;5076674;28;19924;-68
2022/09/19 00:35:54;;;;;;;;;;;10.40;99.90;;;;;;5082209;28;20469;-68
2022/09/19 00:38:23;;;;;;;;;;;10.20;99.90;;;;;;5079140;28;20296;-67
2022/09/19 00:40:49;;;;;;;;;;;10.50;99.90;;;;;;5079573;28;20207;-67
2022/09/19 00:43:16;;;;;;;;;;;10.30;99.90;;;;;;5076605;28;20437;-67
2022/09/19 00:45:42;;;;;;;;;;;10.50;99.90;;;;;;5078185;28;19963;-67
2022/09/19 00:48:10;;;;;;;;;;;10.30;99.90;;;;;;5078125;28;20049;-69
2022/09/19 00:50:36;;;;;;;;;;;10.40;99.90;;;;;;5074694;28;19923;-67
2022/09/19 00:53:13;;;;;;;;;;;10.70;99.90;;;;;;5078240;28;19924;-69
2022/09/19 00:55:39;;;;;;;;;;;10.60;99.90;;;;;;5075432;28;20228;-69
2022/09/19 00:58:19;;;;;;;;;;;10.70;99.90;;;;;;5077584;28;19968;-67
2022/09/19 01:00:44;;;;;;;;;;;11.10;99.90;;;;;;5075685;28;20575;-67
2022/09/19 01:03:10;;;;;;;;;;;11.00;99.90;;;;;;5077417;28;20003;-67
2022/09/19 01:05:43;;;;;;;;;;;11.30;99.90;;;;;;5075211;28;20383;-68
2022/09/19 01:08:21;;;;;;;;;;;11.50;99.90;;;;;;5079933;28;20389;-67
2022/09/19 01:11:05;;;;;;;;;;;11.50;99.90;;;;;;5078547;28;19924;-68
2022/09/19 01:14:09;;;;;;;;;;;11.60;99.90;;;;;;5077666;28;20019;-68
2022/09/19 01:16:41;;;;;;;;;;;11.70;99.90;;;;;;4993478;28;19924;-69
2022/09/19 01:19:25;;;;;;;;;;;11.80;99.90;;;;;;5009518;28;20048;-70
2022/09/19 01:22:22;;;;;;;;;;;12.00;99.90;;;;;;5052146;28;19928;-68
2022/09/19 01:24:54;;;;;;;;;;;12.20;99.90;;;;;;5057760;28;19969;-68
2022/09/19 01:27:40;;;;;;;;;;;12.30;99.90;;;;;;5073301;28;19924;-68
2022/09/19 01:30:06;;;;;;;;;;;12.30;99.90;;;;;;5075658;28;21151;-70
2022/09/19 01:32:35;;;;;;;;;;;12.30;99.90;;;;;;5076986;28;20570;-67
2022/09/19 01:35:03;;;;;;;;;;;12.20;99.90;;;;;;5076177;28;20419;-67
2022/09/19 01:37:42;;;;;;;;;;;12.30;99.90;;;;;;5076783;28;19923;-69
2022/09/19 01:40:09;;;;;;;;;;;12.50;99.90;;;;;;5078827;28;20054;-68
2022/09/19 01:42:35;;;;;;;;;;;12.60;99.90;;;;;;5075025;28;19928;-67
2022/09/19 01:45:00;;;;;;;;;;;12.40;99.90;;;;;;5075470;28;20032;-68
2022/09/19 01:47:31;;;;;;;;;;;12.60;99.90;;;;;;5080477;28;19976;-68
2022/09/19 01:49:57;;;;;;;;;;;12.20;99.90;;;;;;5073413;28;20007;-68
2022/09/19 01:52:42;;;;;;;;;;;12.10;99.90;;;;;;5077599;28;19930;-67
2022/09/19 01:55:26;;;;;;;;;;;12.30;99.90;;;;;;5077222;28;20477;-69
2022/09/19 01:58:00;;;;;;;;;;;12.00;99.90;;;;;;5077759;28;19923;-69
2022/09/19 02:00:26;;;;;;;;;;;11.90;99.90;;;;;;5076271;28;19926;-68
2022/09/19 02:02:53;;;;;;;;;;;12.20;99.90;;;;;;5075648;28;20042;-69
2022/09/19 02:05:24;;;;;;;;;;;12.10;99.90;;;;;;5075680;28;20381;-67
2022/09/19 02:08:02;;;;;;;;;;;11.80;99.90;;;;;;5074887;28;19924;-72
2022/09/19 02:10:30;;;;;;;;;;;12.00;99.90;;;;;;5072926;28;19923;-68
2022/09/19 02:12:57;;;;;;;;;;;12.20;99.90;;;;;;5071958;28;20580;-68
2022/09/19 02:15:26;;;;;;;;;;;12.00;99.90;;;;;;5074330;28;19964;-69
2022/09/19 02:17:57;;;;;;;;;;;12.10;99.90;;;;;;5077825;28;19923;-70
2022/09/19 02:20:33;;;;;;;;;;;12.30;99.90;;;;;;5071591;28;20576;-68
2022/09/19 02:23:05;;;;;;;;;;;12.10;99.90;;;;;;5078352;28;20058;-68
2022/09/19 02:25:33;;;;;;;;;;;12.20;99.90;;;;;;5078889;28;20386;-68
2022/09/19 02:28:07;;;;;;;;;;;12.10;99.90;;;;;;5078447;28;20568;-68
2022/09/19 02:30:33;;;;;;;;;;;12.30;99.90;;;;;;5073401;28;20551;-69
2022/09/19 02:32:59;;;;;;;;;;;12.10;99.90;;;;;;5077764;28;20479;-70
2022/09/19 02:35:34;;;;;;;;;;;12.00;99.90;;;;;;5076059;28;19956;-68
2022/09/19 02:38:18;;;;;;;;;;;12.20;99.90;;;;;;5079014;28;19967;-68
2022/09/19 02:40:47;;;;;;;;;;;12.30;99.90;;;;;;5074146;28;19971;-68
2022/09/19 02:43:17;;;;;;;;;;;12.40;99.90;;;;;;5077755;28;20349;-67
2022/09/19 02:45:44;;;;;;;;;;;12.30;99.90;;;;;;5075278;28;19930;-70
2022/09/19 02:48:32;;;;;;;;;;;12.20;99.90;;;;;;5077713;28;19924;-68
2022/09/19 02:51:01;;;;;;;;;;;12.10;99.90;;;;;;5077240;28;20270;-68
2022/09/19 02:53:29;;;;;;;;;;;12.40;99.90;;;;;;5082179;28;19928;-69
2022/09/19 02:55:59;;;;;;;;;;;12.30;99.90;;;;;;5079789;28;20268;-70
2022/09/19 02:58:27;;;;;;;;;;;12.10;99.90;;;;;;5078132;28;19970;-69
2022/09/19 03:00:56;;;;;;;;;;;12.20;99.90;;;;;;5083077;28;20866;-68
2022/09/19 03:06:19;;;;;;;;;;;11.90;99.90;;;;;;5075796;28;19980;-67
2022/09/19 03:08:50;;;;;;;;;;;11.70;99.90;;;;;;5078951;28;20902;-67
2022/09/19 03:11:18;;;;;;;;;;;11.70;99.90;;;;;;5073728;28;19956;-68
2022/09/19 03:13:45;;;;;;;;;;;11.80;99.90;;;;;;5077322;28;20065;-67
2022/09/19 03:16:11;;;;;;;;;;;12.00;99.90;;;;;;5077161;28;19935;-67
2022/09/19 03:18:38;;;;;;;;;;;11.70;99.90;;;;;;5081802;28;20237;-67
2022/09/19 03:21:07;;;;;;;;;;;11.80;99.90;;;;;;5082788;28;19928;-69
2022/09/19 03:23:40;;;;;;;;;;;12.10;99.90;;;;;;5074519;28;19920;-68
2022/09/19 03:26:08;;;;;;;;;;;11.90;99.90;;;;;;5072202;28;19923;-68
2022/09/19 03:28:33;;;;;;;;;;;11.90;99.90;;;;;;5077034;28;19924;-69
2022/09/19 03:31:00;;;;;;;;;;;12.10;99.90;;;;;;5075171;28;19920;-68
2022/09/19 03:33:26;;;;;;;;;;;12.10;99.90;;;;;;5070636;28;19920;-68
2022/09/19 03:35:52;;;;;;;;;;;12.00;99.90;;;;;;5073649;28;19931;-68
2022/09/19 03:38:19;;;;;;;;;;;12.20;99.90;;;;;;5076100;28;19981;-69
2022/09/19 03:40:44;;;;;;;;;;;12.10;99.90;;;;;;5075570;28;19927;-66
2022/09/19 03:43:10;;;;;;;;;;;12.20;99.90;;;;;;5055217;28;19926;-68
2022/09/19 03:45:36;;;;;;;;;;;12.20;99.90;;;;;;5080752;28;19930;-66
2022/09/19 03:48:02;;;;;;;;;;;11.90;99.90;;;;;;5074064;28;19924;-68
2022/09/19 03:50:28;;;;;;;;;;;11.90;99.90;;;;;;5073695;28;19923;-68
2022/09/19 03:52:54;;;;;;;;;;;12.00;99.90;;;;;;5078491;28;19935;-68
2022/09/19 03:55:19;;;;;;;;;;;11.80;99.90;;;;;;5077745;28;20446;-68
2022/09/19 03:57:45;;;;;;;;;;;11.80;99.90;;;;;;5074324;28;19978;-70
2022/09/19 04:00:11;;;;;;;;;;;12.20;99.90;;;;;;5075283;28;19966;-68
2022/09/19 04:02:36;;;;;;;;;;;12.10;99.90;;;;;;5073468;28;19924;-68
2022/09/19 04:05:02;;;;;;;;;;;12.20;99.90;;;;;;5073153;28;19920;-68
2022/09/19 04:07:28;;;;;;;;;;;12.20;99.90;;;;;;5074695;28;19993;-68
2022/09/19 04:09:56;;;;;;;;;;;11.90;99.90;;;;;;5075674;28;19985;-68
2022/09/19 04:12:23;;;;;;;;;;;11.90;99.90;;;;;;5078251;28;20019;-68
2022/09/19 04:14:48;;;;;;;;;;;12.20;99.90;;;;;;5071949;28;20034;-69
2022/09/19 04:17:14;;;;;;;;;;;12.10;99.90;;;;;;5075970;28;20388;-68
2022/09/19 04:19:42;;;;;;;;;;;12.00;99.90;;;;;;5075939;28;20572;-66
2022/09/19 04:22:10;;;;;;;;;;;12.20;99.90;;;;;;5073273;28;19963;-68
2022/09/19 04:24:42;;;;;;;;;;;12.10;99.90;;;;;;5075256;28;19920;-69
2022/09/19 04:27:11;;;;;;;;;;;12.20;99.90;;;;;;5070396;28;20022;-68
2022/09/19 04:29:36;;;;;;;;;;;12.10;99.90;;;;;;5071194;28;19923;-68
2022/09/19 04:32:02;;;;;;;;;;;12.20;99.90;;;;;;5074375;28;20047;-72
2022/09/19 04:34:28;;;;;;;;;;;11.90;99.90;;;;;;5074246;28;19931;-68
2022/09/19 04:36:56;;;;;;;;;;;12.20;99.90;;;;;;5073593;28;19929;-67
2022/09/19 04:39:22;;;;;;;;;;;12.20;99.90;;;;;;5075303;28;20503;-68
2022/09/19 04:41:52;;;;;;;;;;;11.90;99.90;;;;;;5074644;28;19920;-67
2022/09/19 04:44:18;;;;;;;;;;;12.00;99.90;;;;;;5070053;28;20513;-68
2022/09/19 04:46:46;;;;;;;;;;;12.30;99.90;;;;;;5073574;28;19984;-69
2022/09/19 04:49:13;;;;;;;;;;;12.20;99.90;;;;;;5077435;28;19920;-69
2022/09/19 04:51:38;;;;;;;;;;;12.30;99.90;;;;;;5075105;28;19954;-67
2022/09/19 04:54:05;;;;;;;;;;;12.00;99.90;;;;;;5080310;28;19924;-67
2022/09/19 04:56:30;;;;;;;;;;;12.20;99.90;;;;;;5074612;28;19920;-68
2022/09/19 04:58:58;;;;;;;;;;;12.00;99.90;;;;;;5073318;28;20478;-67
2022/09/19 05:01:28;;;;;;;;;;;12.30;99.90;;;;;;5075875;28;19962;-67
2022/09/19 05:03:54;;;;;;;;;;;12.30;99.90;;;;;;5081999;28;19966;-70
2022/09/19 05:06:19;;;;;;;;;;;12.00;99.90;;;;;;5077200;28;20642;-68
2022/09/19 05:08:45;;;;;;;;;;;11.90;99.90;;;;;;5075237;28;19919;-69
2022/09/19 05:11:11;;;;;;;;;;;12.20;99.90;;;;;;5077575;28;19942;-68
2022/09/19 05:13:40;;;;;;;;;;;12.30;99.90;;;;;;5077014;28;19926;-68
2022/09/19 05:16:07;;;;;;;;;;;12.30;99.90;;;;;;5075452;28;20516;-67
2022/09/19 05:18:35;;;;;;;;;;;12.00;99.90;;;;;;5076669;28;20413;-72
2022/09/19 05:21:05;;;;;;;;;;;12.10;99.90;;;;;;5075358;28;19976;-68
2022/09/19 05:23:30;;;;;;;;;;;12.40;99.90;;;;;;5076940;28;20604;-67
2022/09/19 05:26:01;;;;;;;;;;;12.50;99.90;;;;;;5072946;28;19935;-70
2022/09/19 05:28:27;;;;;;;;;;;12.20;99.90;;;;;;5077347;28;19991;-68
2022/09/19 05:30:55;;;;;;;;;;;12.50;99.90;;;;;;5077249;28;19928;-68
2022/09/19 05:33:23;;;;;;;;;;;12.30;99.90;;;;;;5075297;28;20283;-72
2022/09/19 05:35:50;;;;;;;;;;;12.50;99.90;;;;;;5074497;28;19924;-68
2022/09/19 05:38:15;;;;;;;;;;;12.20;99.90;;;;;;5075172;28;19924;-71
2022/09/19 05:40:41;;;;;;;;;;;12.20;99.90;;;;;;5078695;28;19998;-69
2022/09/19 05:43:07;;;;;;;;;;;12.50;99.90;;;;;;5074965;28;20652;-69
2022/09/19 05:45:33;;;;;;;;;;;12.10;99.90;;;;;;5074015;28;19924;-69
2022/09/19 05:48:00;;;;;;;;;;;12.40;99.90;;;;;;5076073;28;20475;-68
2022/09/19 05:50:26;;;;;;;;;;;12.40;99.90;;;;;;5071943;28;20364;-68
2022/09/19 05:55:36;;;;;;;;;;;12.50;99.90;;;;;;5077095;28;19989;-67
2022/09/19 05:58:01;;;;;;;;;;;12.60;99.90;;;;;;5074503;28;19928;-69
2022/09/19 06:00:27;;;;;;;;;;;12.20;99.90;;;;;;5072102;28;19966;-67
2022/09/19 06:02:53;;;;;;;;;;;12.20;99.90;;;;;;5078827;28;20437;-69
2022/09/19 06:05:19;;;;;;;;;;;12.30;99.90;;;;;;5078390;28;19958;-68
2022/09/19 06:07:45;;;;;;;;;;;12.10;99.90;;;;;;5075213;28;20498;-68
2022/09/19 06:10:12;;;;;;;;;;;12.40;99.90;;;;;;5079146;28;20211;-69
2022/09/19 06:12:38;;;;;;;;;;;12.30;99.90;;;;;;5073891;28;19928;-68
2022/09/19 06:15:04;;;;;;;;;;;12.10;99.90;;;;;;5078308;28;19924;-68
2022/09/19 06:17:29;;;;;;;;;;;12.40;99.90;;;;;;5073700;28;19975;-69
2022/09/19 06:19:55;;;;;;;;;;;12.40;99.90;;;;;;5073289;28;19923;-67
2022/09/19 06:22:21;;;;;;;;;;;12.50;99.90;;;;;;5079318;28;20581;-68
2022/09/19 06:24:46;;;;;;;;;;;12.40;99.90;;;;;;5077211;28;19928;-68
2022/09/19 06:27:12;;;;;;;;;;;12.70;99.90;;;;;;5081108;28;19927;-68
2022/09/19 06:29:37;;;;;;;;;;;12.30;99.90;;;;;;5078671;28;19939;-68
2022/09/19 06:32:03;;;;;;;;;;;12.50;99.90;;;;;;5075096;28;19927;-68
2022/09/19 06:34:29;;;;;;;;;;;12.30;99.90;;;;;;5078041;28;19933;-69
2022/09/19 06:36:55;;;;;;;;;;;12.70;99.90;;;;;;5074943;28;19924;-67
2022/09/19 06:39:21;;;;;;;;;;;12.60;99.90;;;;;;5076448;28;20010;-68
2022/09/19 06:41:47;;;;;;;;;;;12.70;99.90;;;;;;5070796;28;19924;-68
2022/09/19 06:44:13;;;;;;;;;;;12.90;99.90;;;;;;5073251;28;19975;-67
2022/09/19 06:46:39;;;;;;;;;;;13.10;99.90;;;;;;5078213;28;19924;-68
2022/09/19 06:49:07;;;;;;;;;;;13.00;99.90;;;;;;5075063;28;20204;-67
2022/09/19 06:51:33;;;;;;;;;;;13.00;99.90;;;;;;5071594;28;20022;-67
2022/09/19 06:53:58;;;;;;;;;;;13.40;99.90;;;;;;5076270;28;19924;-67
2022/09/19 06:56:24;;;;;;;;;;;13.10;99.90;;;;;;5077060;28;20400;-66
2022/09/19 06:58:50;;;;;;;;;;;13.50;99.90;;;;;;5081086;28;20399;-67
2022/09/19 07:01:16;;;;;;;;;;;13.50;99.90;;;;;;5073936;28;19967;-67
2022/09/19 07:03:42;;;;;;;;;;;13.50;99.90;;;;;;5079980;28;19919;-67
2022/09/19 07:06:07;;;;;;;;;;;14.40;99.90;;;;;;5070986;28;20456;-67
2022/09/19 07:08:33;;;;;;;;;;;14.60;99.90;;;;;;5076025;28;19920;-70
2022/09/19 07:10:58;;;;;;;;;;;15.00;99.90;;;;;;5082171;28;20731;-68
2022/09/19 07:13:24;;;;;;;;;;;15.10;99.90;;;;;;5074655;28;19923;-66
2022/09/19 07:15:50;;;;;;;;;;;15.00;99.90;;;;;;5082622;28;19928;-67
2022/09/19 07:18:15;;;;;;;;;;;14.80;99.90;;;;;;5080408;28;20014;-67
2022/09/19 07:20:41;;;;;;;;;;;15.30;99.90;;;;;;5073645;28;19969;-67
2022/09/19 07:23:17;;;;;;;;;;;15.30;99.90;;;;;;5073355;28;19920;-69
2022/09/19 07:25:43;;;;;;;;;;;15.80;99.90;;;;;;5073550;28;20814;-68
2022/09/19 07:28:10;;;;;;;;;;;15.90;99.90;;;;;;5075559;28;20022;-68
2022/09/19 07:30:36;;;;;;;;;;;15.90;99.90;;;;;;5052564;23;19932;-65
2022/09/19 07:33:02;;;;;;;;;;;16.00;99.90;;;;;;5020783;28;20272;-66
2022/09/19 07:35:28;;;;;;;;;;;16.10;99.90;;;;;;5020718;28;19964;-66
2022/09/19 07:37:55;;;;;;;;;;;15.80;99.90;;;;;;5021662;28;19920;-65
2022/09/19 07:40:20;;;;;;;;;;;15.70;99.90;;;;;;5020440;28;19979;-65
2022/09/19 07:42:46;;;;;;;;;;;15.50;99.90;;;;;;5021401;28;20716;-65
2022/09/19 07:45:12;;;;;;;;;;;15.80;99.90;;;;;;5018311;28;19920;-63
2022/09/19 07:47:42;;;;;;;;;;;15.20;99.90;;;;;;4998124;28;19967;-64
2022/09/19 07:50:07;;;;;;;;;;;14.90;99.90;;;;;;5014775;28;20010;-64
2022/09/19 07:52:33;;;;;;;;;;;14.70;99.90;;;;;;5013286;28;20019;-64
2022/09/19 07:54:59;;;;;;;;;;;14.70;99.90;;;;;;5016572;28;20575;-65
2022/09/19 07:57:24;;;;;;;;;;;14.30;99.90;;;;;;5015836;28;20011;-63
2022/09/19 07:59:50;;;;;;;;;;;14.30;99.90;;;;;;4999103;28;19931;-63
2022/09/19 08:02:16;;;;;;;;;;;14.20;99.90;;;;;;5018330;28;19920;-63
2022/09/19 08:04:41;;;;;;;;;;;14.00;99.90;;;;;;5017141;28;20350;-64
2022/09/19 08:07:07;;;;;;;;;;;14.10;99.90;;;;;;5014540;28;19972;-64
2022/09/19 08:09:33;;;;;;;;;;;14.50;99.90;;;;;;5014056;28;19921;-64
2022/09/19 08:12:03;;;;;;;;;;;15.60;99.90;;;;;;5011451;28;20382;-64
2022/09/19 08:14:29;;;;;;;;;;;16.00;99.90;;;;;;5016514;28;20151;-64
2022/09/19 08:16:55;;;;;;;;;;;16.10;99.90;;;;;;5017804;28;20008;-63
2022/09/19 08:19:20;;;;;;;;;;;16.00;99.90;;;;;;5021110;28;20373;-64
2022/09/19 08:21:46;;;;;;;;;;;15.70;99.90;;;;;;5019479;28;19925;-64
2022/09/19 08:24:12;;;;;;;;;;;15.60;99.90;;;;;;5020936;28;20296;-64
2022/09/19 08:26:37;;;;;;;;;;;16.40;99.90;;;;;;5016179;28;19929;-65
2022/09/19 08:29:03;;;;;;;;;;;17.00;99.90;;;;;;5018756;28;19921;-65
2022/09/19 08:31:28;;;;;;;;;;;17.20;99.90;;;;;;5021955;28;19925;-64
2022/09/19 08:33:54;;;;;;;;;;;17.80;99.90;;;;;;5020139;28;20402;-64
2022/09/19 08:36:20;;;;;;;;;;;17.80;99.90;;;;;;5022792;28;19921;-64
2022/09/19 08:38:45;;;;;;;;;;;17.70;99.90;;;;;;5006754;28;19916;-64
2022/09/19 08:41:21;;;;;;;;;;;18.00;99.90;;;;;;5025432;28;19917;-64
2022/09/19 08:43:56;;;;;;;;;;;18.50;99.90;;;;;;5017869;28;19920;-65
2022/09/19 08:46:26;;;;;;;;;;;17.80;99.90;;;;;;5021873;28;19940;-64
2022/09/19 08:48:52;;;;;;;;;;;17.70;99.90;;;;;;5031077;28;19921;-64
2022/09/19 08:51:24;;;;;;;;;;;17.70;99.90;;;;;;5019213;28;19999;-64
2022/09/19 08:53:53;;;;;;;;;;;17.60;99.90;;;;;;5036943;28;20198;-64
2022/09/19 08:56:19;;;;;;;;;;;17.80;99.90;;;;;;5022146;28;19924;-65
2022/09/19 08:58:48;;;;;;;;;;;17.80;99.90;;;;;;5023042;28;20498;-64
2022/09/19 09:01:15;;;;;;;;;;;17.40;99.90;;;;;;5017654;28;19925;-64
2022/09/19 09:03:42;;;;;;;;;;;17.20;99.90;;;;;;5023574;28;19928;-64
2022/09/19 09:06:10;;;;;;;;;;;17.30;99.90;;;;;;5018215;28;19924;-65
2022/09/19 09:08:42;;;;;;;;;;;17.30;99.90;;;;;;5014643;28;20548;-64
2022/09/19 09:11:20;;;;;;;;;;;17.80;99.90;;;;;;5018588;28;19971;-64
2022/09/19 09:14:09;;;;;;;;;;;18.40;99.90;;;;;;5017843;28;19975;-64
2022/09/19 09:16:38;;;;;;;;;;;19.00;99.90;;;;;;4975954;28;19924;-64
2022/09/19 09:19:17;;;;;;;;;;;18.60;99.90;;;;;;5021235;28;19921;-65
2022/09/19 09:22:18;;;;;;;;;;;18.30;99.90;;;;;;5033349;28;20411;-64
2022/09/19 09:25:00;;;;;;;;;;;17.40;99.90;;;;;;5007342;28;19962;-65
2022/09/19 09:27:30;;;;;;;;;;;17.10;99.90;;;;;;5020203;28;20377;-64
2022/09/19 09:29:58;;;;;;;;;;;16.70;99.90;;;;;;5014358;28;20380;-64
2022/09/19 09:32:34;;;;;;;;;;;17.10;99.90;;;;;;5013766;28;19955;-64
2022/09/19 09:35:18;;;;;;;;;;;17.50;99.90;;;;;;5018013;28;20297;-65
2022/09/19 09:37:47;;;;;;;;;;;18.10;99.90;;;;;;5017861;28;20022;-64
2022/09/19 09:43:20;;;;;;;;;;;18.80;99.90;;;;;;5037301;28;20368;-64
2022/09/19 09:45:50;;;;;;;;;;;19.40;99.90;;;;;;5016008;28;19971;-64
2022/09/19 09:48:20;;;;;;;;;;;19.80;99.90;;;;;;5018365;28;20019;-65
2022/09/19 09:50:55;;;;;;;;;;;18.60;99.90;;;;;;5015479;28;20371;-64
2022/09/19 09:53:46;;;;;;;;;;;18.30;99.90;;;;;;5001938;28;20047;-64
2022/09/19 09:56:17;;;;;;;;;;;17.80;99.90;;;;;;5015187;28;20121;-65
2022/09/19 09:58:49;;;;;;;;;;;17.30;99.90;;;;;;5013920;28;19975;-64
2022/09/19 10:04:29;;;;;;;;;;;17.00;99.90;;;;;;5016757;28;20160;-64
2022/09/19 10:07:09;;;;;;;;;;;17.20;99.90;;;;;;5021620;28;19982;-64
2022/09/19 10:09:36;;;;;;;;;;;18.00;99.90;;;;;;5018750;28;19920;-64
2022/09/19 10:12:08;;;;;;;;;;;18.60;99.90;;;;;;5019345;28;19924;-65
2022/09/19 10:14:35;;;;;;;;;;;18.10;99.90;;;;;;5017258;28;20397;-64
2022/09/19 10:17:01;;;;;;;;;;;17.90;99.90;;;;;;5019966;28;20219;-64
2022/09/19 10:19:40;;;;;;;;;;;16.80;99.90;;;;;;5018653;28;19920;-64
2022/09/19 10:22:15;;;;;;;;;;;16.40;99.90;;;;;;5017639;28;19921;-64
2022/09/19 10:24:50;;;;;;;;;;;16.20;99.90;;;;;;5016070;28;20442;-65
2022/09/19 10:27:23;;;;;;;;;;;15.80;99.90;;;;;;5016706;28;20300;-65
2022/09/19 10:29:59;;;;;;;;;;;15.50;99.90;;;;;;5017092;28;20655;-65
2022/09/19 10:32:37;;;;;;;;;;;15.30;99.90;;;;;;5018603;28;19960;-66
2022/09/19 10:35:21;;;;;;;;;;;15.20;99.90;;;;;;5025568;28;19928;-65
2022/09/19 10:37:51;;;;;;;;;;;15.00;99.90;;;;;;5017403;28;19920;-65
2022/09/19 10:40:17;;;;;;;;;;;14.90;99.90;;;;;;5018914;28;19928;-64
2022/09/19 10:42:43;;;;;;;;;;;15.10;99.90;;;;;;5014006;28;19925;-65
2022/09/19 10:45:18;;;;;;;;;;;15.30;99.90;;;;;;5014562;28;20485;-65
2022/09/19 10:47:47;;;;;;;;;;;15.50;99.90;;;;;;5036394;28;19982;-64
2022/09/19 10:50:17;;;;;;;;;;;15.80;99.90;;;;;;5016855;28;20434;-64
2022/09/19 10:52:44;;;;;;;;;;;16.00;99.90;;;;;;5018878;28;20049;-64
2022/09/19 10:55:14;;;;;;;;;;;16.10;99.90;;;;;;5011848;28;19925;-64
2022/09/19 10:57:45;;;;;;;;;;;16.20;99.90;;;;;;5019929;28;19928;-64
2022/09/19 11:00:20;;;;;;;;;;;16.70;99.90;;;;;;5016582;28;20297;-63
2022/09/19 11:02:53;;;;;;;;;;;16.90;99.90;;;;;;5013827;28;20150;-64
2022/09/19 11:05:23;;;;;;;;;;;17.30;99.90;;;;;;5010925;28;19925;-64
2022/09/19 11:07:54;;;;;;;;;;;17.10;99.90;;;;;;5017681;28;19937;-64
2022/09/19 11:10:32;;;;;;;;;;;16.90;99.90;;;;;;5014276;28;20206;-65
2022/09/19 11:13:10;;;;;;;;;;;17.40;99.90;;;;;;5018095;28;20422;-64
2022/09/19 11:15:41;;;;;;;;;;;18.20;99.90;;;;;;4994558;28;19921;-64
2022/09/19 11:18:16;;;;;;;;;;;18.60;99.90;;;;;;5019979;28;19925;-64
2022/09/19 11:20:57;;;;;;;;;;;18.30;99.90;;;;;;5024016;28;19967;-64
2022/09/19 11:23:33;;;;;;;;;;;18.10;99.90;;;;;;5022273;28;19927;-65
2022/09/19 11:26:18;;;;;;;;;;;18.60;99.90;;;;;;5028693;28;20330;-64
2022/09/19 11:28:49;;;;;;;;;;;19.10;99.90;;;;;;5022710;28;20464;-65
2022/09/19 11:31:34;;;;;;;;;;;18.90;99.90;;;;;;5025132;28;19924;-64
2022/09/19 11:34:17;;;;;;;;;;;19.10;99.90;;;;;;5014637;28;20389;-64
2022/09/19 11:37:02;;;;;;;;;;;19.30;99.90;;;;;;5020666;28;19928;-65
2022/09/19 11:39:40;;;;;;;;;;;19.50;99.90;;;;;;5022048;28;20342;-64
2022/09/19 11:42:08;;;;;;;;;;;19.40;99.90;;;;;;5015249;28;19921;-65
2022/09/19 11:44:52;;;;;;;;;;;19.70;99.90;;;;;;5016887;28;19920;-65
2022/09/19 11:47:30;;;;;;;;;;;19.40;99.90;;;;;;5021816;28;19936;-65
2022/09/19 11:49:56;;;;;;;;;;;20.10;99.90;;;;;;5019143;28;19921;-65
2022/09/19 11:52:26;;;;;;;;;;;19.80;99.90;;;;;;5024940;28;19942;-64
2022/09/19 11:55:03;;;;;;;;;;;19.50;99.90;;;;;;5021027;28;20000;-64
2022/09/19 11:57:39;;;;;;;;;;;19.50;99.90;;;;;;5027560;28;19920;-65
2022/09/19 12:00:13;;;;;;;;;;;19.40;99.90;;;;;;5015614;28;19929;-65
2022/09/19 12:02:56;;;;;;;;;;;19.50;99.90;;;;;;5015433;28;19921;-65
2022/09/19 12:05:34;;;;;;;;;;;18.90;99.90;;;;;;5015836;28;19951;-64
2022/09/19 12:08:12;;;;;;;;;;;18.20;99.90;;;;;;5015540;28;19972;-64
2022/09/19 12:10:50;;;;;;;;;;;17.60;99.90;;;;;;5025788;28;19925;-64
2022/09/19 12:13:46;;;;;;;;;;;17.30;99.90;;;;;;5022740;28;19927;-64
2022/09/19 12:16:18;;;;;;;;;;;16.90;99.90;;;;;;5002341;28;20116;-64
2022/09/19 12:18:55;;;;;;;;;;;17.20;99.90;;;;;;5035790;28;19921;-64
2022/09/19 12:21:22;;;;;;;;;;;17.20;99.90;;;;;;5023033;28;20362;-64
2022/09/19 12:26:49;;;;;;;;;;;18.10;99.90;;;;;;5012927;28;20148;-65
2022/09/19 12:29:19;;;;;;;;;;;18.20;99.90;;;;;;5030581;28;19921;-64
2022/09/19 12:31:51;;;;;;;;;;;18.70;99.90;;;;;;5015851;28;20396;-63
2022/09/19 12:34:39;;;;;;;;;;;18.40;99.90;;;;;;4997380;28;19943;-64
2022/09/19 12:37:12;;;;;;;;;;;18.80;99.90;;;;;;5014718;28;20024;-64
2022/09/19 12:39:49;;;;;;;;;;;19.00;99.90;;;;;;5028969;28;19990;-63
2022/09/19 12:42:22;;;;;;;;;;;19.30;97.60;;;;;;5015277;28;19931;-63
2022/09/19 12:44:47;;;;;;;;;;;18.20;99.90;;;;;;5014226;28;19924;-64
2022/09/19 12:47:16;;;;;;;;;;;18.90;99.30;;;;;;5016369;28;20411;-63
2022/09/19 12:49:42;;;;;;;;;;;19.20;99.90;;;;;;5017557;28;20035;-62
2022/09/19 12:52:19;;;;;;;;;;;19.30;99.90;;;;;;5013317;28;19959;-63
2022/09/19 12:54:53;;;;;;;;;;;19.60;99.20;;;;;;5020785;28;19920;-63
2022/09/19 12:57:23;;;;;;;;;;;19.10;91.50;;;;;;5017002;28;20133;-63
2022/09/19 12:59:51;;;;;;;;;;;19.90;92.50;;;;;;5018608;28;20489;-63
2022/09/19 13:02:18;;;;;;;;;;;19.60;92.00;;;;;;5022962;28;19932;-63
2022/09/19 13:05:04;;;;;;;;;;;19.80;90.80;;;;;;5027816;28;20037;-63
2022/09/19 13:08:05;;;;;;;;;;;19.90;94.70;;;;;;5026546;28;19920;-63
2022/09/19 13:10:39;;;;;;;;;;;19.40;91.10;;;;;;4934842;28;20435;-64
2022/09/19 13:13:11;;;;;;;;;;;18.70;98.80;;;;;;5006753;28;19932;-63
2022/09/19 13:15:37;;;;;;;;;;;17.90;99.90;;;;;;5024026;28;20019;-62
2022/09/19 13:23:35;;;;;;;;;;;18.20;99.20;;;;;;5053621;28;20019;-64
2022/09/19 13:26:16;;;;;;;;;;;18.00;99.90;;;;;;5032143;28;19921;-64
2022/09/19 13:28:45;;;;;;;;;;;17.80;99.90;;;;;;5040566;28;19974;-65
2022/09/19 13:31:12;;;;;;;;;;;17.10;99.90;;;;;;5044256;28;19925;-64
2022/09/19 13:33:44;;;;;;;;;;;16.80;99.90;;;;;;5036735;28;19929;-63
2022/09/19 13:36:11;;;;;;;;;;;16.40;99.90;;;;;;5049344;28;19917;-64
2022/09/19 13:38:43;;;;;;;;;;;15.80;99.90;;;;;;5035051;28;19924;-64
2022/09/19 13:41:14;;;;;;;;;;;15.30;99.90;;;;;;5028089;28;19921;-64
2022/09/19 13:43:44;;;;;;;;;;;15.20;99.90;;;;;;5023153;28;20013;-65
2022/09/19 13:46:30;;;;;;;;;;;15.30;99.90;;;;;;5033876;28;19968;-63
2022/09/19 13:49:05;;;;;;;;;;;15.20;99.90;;;;;;5034273;28;20015;-64
2022/09/19 13:51:37;;;;;;;;;;;15.00;99.90;;;;;;5034834;28;19920;-65
2022/09/19 13:54:33;;;;;;;;;;;14.90;99.90;;;;;;5034539;28;20002;-64
2022/09/19 13:57:01;;;;;;;;;;;14.60;99.90;;;;;;5028970;28;19920;-62
2022/09/19 13:59:34;;;;;;;;;;;14.50;99.90;;;;;;5034816;28;20256;-63
2022/09/19 14:02:11;;;;;;;;;;;14.50;99.90;;;;;;5030848;28;21191;-64
2022/09/19 14:04:52;;;;;;;;;;;15.30;99.90;;;;;;5038103;28;19995;-63
2022/09/19 14:07:23;;;;;;;;;;;15.90;99.90;;;;;;5049798;28;19936;-62
2022/09/19 14:10:00;;;;;;;;;;;16.00;99.90;;;;;;5032143;28;20386;-63
2022/09/19 14:12:39;;;;;;;;;;;15.80;99.90;;;;;;5034824;28;19921;-63
2022/09/19 14:15:24;;;;;;;;;;;16.00;99.90;;;;;;5034994;28;19923;-63
2022/09/19 14:18:08;;;;;;;;;;;16.10;99.90;;;;;;5047299;28;19920;-63
2022/09/19 14:20:46;;;;;;;;;;;16.60;99.90;;;;;;5015202;28;19917;-63
2022/09/19 14:23:14;;;;;;;;;;;17.40;99.90;;;;;;5033463;28;20320;-62
2022/09/19 14:25:40;;;;;;;;;;;18.00;99.90;;;;;;5018197;28;19929;-63
2022/09/19 14:28:17;;;;;;;;;;;17.90;99.90;;;;;;5036837;28;19917;-63
2022/09/19 14:31:03;;;;;;;;;;;18.10;99.90;;;;;;5024583;28;19920;-62
2022/09/19 14:35:25;;;;;;;17.88;1.80;;;17.90;99.90;;;;;;5083172;27;1942511;-62
2022/09/19 14:38:29;;;;;;;12.50;1.40;;;18.90;99.90;;;;;;5131844;27;20042;-62
2022/09/19 14:41:09;;;;;;;14.30;1.67;;;18.70;99.90;;;;;;5132341;27;20050;-62
2022/09/19 14:44:02;;;;;;;11.63;0.80;;;18.20;99.90;;;;;;5113495;27;20034;-62
2022/09/19 14:46:35;;;;;;;10.30;1.23;;;17.80;99.90;;;;;;5114523;27;20121;-62
2022/09/19 14:49:48;;;;;;;10.40;1.30;;;17.80;99.90;;;;;;5133524;27;20418;-61
2022/09/19 14:52:18;;;;;;;10.98;1.05;;;18.00;99.90;;;;;;5047407;28;20071;-62
2022/09/19 14:54:54;;;;;;;9.30;0.65;;;18.90;99.90;;;;;;5125984;27;20604;-63
2022/09/19 14:57:22;;;;;;;8.25;0.80;;;18.80;97.10;;;;;;5138489;27;20400;-64
2022/09/19 14:59:48;;;;;;;8.52;0.70;;;18.70;92.20;;;;;;5155341;27;20034;-62